sensor_id;sensor_type;location;lat;lon;timestamp;temperature;humidity
17442;DHT22;8838;50.144;8.176;2023-04-07T00:00:28;5.80;99.90
17442;DHT22;8838;50.144;8.176;2023-04-07T00:02:57;5.80;99.90
17442;DHT22;8838;50.144;8.176;2023-04-07T00:05:24;5.80;99.90
17442;DHT22;8838;50.144;8.176;2023-04-07T00:07:50;5.80;99.90
17442;DHT22;8838;50.144;8.176;2023-04-07T00:10:17;5.80;99.90
17442;DHT22;8838;50.144;8.176;2023-04-07T00:12:44;5.80;99.90
17442;DHT22;8838;50.144;8.176;2023-04-07T00:15:11;5.80;99.90
17442;DHT22;8838;50.144;8.176;2023-04-07T00:17:38;5.70;99.90
17442;DHT22;8838;50.144;8.176;2023-04-07T00:20:07;5.70;99.90
17442;DHT22;8838;50.144;8.176;2023-04-07T00:22:34;5.70;99.90
17442;DHT22;8838;50.144;8.176;2023-04-07T00:25:01;5.80;99.90
17442;DHT22;8838;50.144;8.176;2023-04-07T00:27:28;5.80;99.90
17442;DHT22;8838;50.144;8.176;2023-04-07T00:29:55;5.80;99.90
17442;DHT22;8838;50.144;8.176;2023-04-07T00:32:22;5.70;99.90
17442;DHT22;8838;50.144;8.176;2023-04-07T00:34:49;5.70;99.90
17442;DHT22;8838;50.144;8.176;2023-04-07T00:37:17;5.60;99.90
17442;DHT22;8838;50.144;8.176;2023-04-07T00:39:45;5.70;99.90
17442;DHT22;8838;50.144;8.176;2023-04-07T00:42:12;5.70;99.90
17442;DHT22;8838;50.144;8.176;2023-04-07T00:44:39;5.70;99.90
17442;DHT22;8838;50.144;8.176;2023-04-07T00:47:05;5.80;99.90
17442;DHT22;8838;50.144;8.176;2023-04-07T00:49:33;5.70;99.90
17442;DHT22;8838;50.144;8.176;2023-04-07T00:52:02;5.80;99.90
17442;DHT22;8838;50.144;8.176;2023-04-07T00:54:31;5.70;99.90
17442;DHT22;8838;50.144;8.176;2023-04-07T00:56:58;5.80;99.90
17442;DHT22;8838;50.144;8.176;2023-04-07T00:59:26;5.70;99.90
17442;DHT22;8838;50.144;8.176;2023-04-07T01:02:00;5.80;99.90
17442;DHT22;8838;50.144;8.176;2023-04-07T01:04:32;5.80;99.90
17442;DHT22;8838;50.144;8.176;2023-04-07T01:07:04;5.80;99.90
17442;DHT22;8838;50.144;8.176;2023-04-07T01:09:37;5.80;99.90
17442;DHT22;8838;50.144;8.176;2023-04-07T01:12:11;5.80;99.90
17442;DHT22;8838;50.144;8.176;2023-04-07T01:14:46;5.80;99.90
17442;DHT22;8838;50.144;8.176;2023-04-07T01:17:17;5.80;99.90
17442;DHT22;8838;50.144;8.176;2023-04-07T01:19:49;5.80;99.90
17442;DHT22;8838;50.144;8.176;2023-04-07T01:22:22;5.90;99.90
17442;DHT22;8838;50.144;8.176;2023-04-07T01:27:53;5.90;99.90
17442;DHT22;8838;50.144;8.176;2023-04-07T01:30:27;5.90;99.90
17442;DHT22;8838;50.144;8.176;2023-04-07T01:32:55;5.90;99.90
17442;DHT22;8838;50.144;8.176;2023-04-07T01:35:24;5.90;99.90
17442;DHT22;8838;50.144;8.176;2023-04-07T01:37:53;6.00;99.90
17442;DHT22;8838;50.144;8.176;2023-04-07T01:40:21;5.90;99.90
17442;DHT22;8838;50.144;8.176;2023-04-07T01:42:49;5.90;99.90
17442;DHT22;8838;50.144;8.176;2023-04-07T01:45:17;5.80;99.90
17442;DHT22;8838;50.144;8.176;2023-04-07T01:47:46;5.80;99.90
17442;DHT22;8838;50.144;8.176;2023-04-07T01:50:15;5.90;99.90
17442;DHT22;8838;50.144;8.176;2023-04-07T01:52:42;5.90;99.90
17442;DHT22;8838;50.144;8.176;2023-04-07T01:55:10;5.80;99.90
17442;DHT22;8838;50.144;8.176;2023-04-07T01:57:37;5.80;99.90
17442;DHT22;8838;50.144;8.176;2023-04-07T02:00:06;5.80;99.90
17442;DHT22;8838;50.144;8.176;2023-04-07T02:02:36;5.70;99.90
17442;DHT22;8838;50.144;8.176;2023-04-07T02:05:11;5.90;99.90
17442;DHT22;8838;50.144;8.176;2023-04-07T02:07:49;5.90;99.90
17442;DHT22;8838;50.144;8.176;2023-04-07T02:10:20;5.90;99.90
17442;DHT22;8838;50.144;8.176;2023-04-07T02:12:48;5.90;99.90
17442;DHT22;8838;50.144;8.176;2023-04-07T02:15:15;5.90;99.90
17442;DHT22;8838;50.144;8.176;2023-04-07T02:17:46;5.80;99.90
17442;DHT22;8838;50.144;8.176;2023-04-07T02:20:16;5.80;99.90
17442;DHT22;8838;50.144;8.176;2023-04-07T02:22:43;5.80;99.90
17442;DHT22;8838;50.144;8.176;2023-04-07T02:25:20;5.80;99.90
17442;DHT22;8838;50.144;8.176;2023-04-07T02:27:48;5.80;99.90
17442;DHT22;8838;50.144;8.176;2023-04-07T02:30:15;5.80;99.90
17442;DHT22;8838;50.144;8.176;2023-04-07T02:32:41;5.80;99.90
17442;DHT22;8838;50.144;8.176;2023-04-07T02:35:09;5.80;99.90
17442;DHT22;8838;50.144;8.176;2023-04-07T02:37:37;5.80;99.90
17442;DHT22;8838;50.144;8.176;2023-04-07T02:40:05;5.80;99.90
17442;DHT22;8838;50.144;8.176;2023-04-07T02:42:33;5.80;99.90
17442;DHT22;8838;50.144;8.176;2023-04-07T02:45:01;5.80;99.90
17442;DHT22;8838;50.144;8.176;2023-04-07T02:47:27;5.80;99.90
17442;DHT22;8838;50.144;8.176;2023-04-07T02:49:55;5.90;99.90
17442;DHT22;8838;50.144;8.176;2023-04-07T02:52:22;5.80;99.90
17442;DHT22;8838;50.144;8.176;2023-04-07T02:54:50;5.80;99.90
17442;DHT22;8838;50.144;8.176;2023-04-07T02:57:17;5.80;99.90
17442;DHT22;8838;50.144;8.176;2023-04-07T02:59:44;5.90;99.90
17442;DHT22;8838;50.144;8.176;2023-04-07T03:02:11;6.00;99.90
17442;DHT22;8838;50.144;8.176;2023-04-07T03:04:38;5.90;99.90
17442;DHT22;8838;50.144;8.176;2023-04-07T03:07:05;5.90;99.90
17442;DHT22;8838;50.144;8.176;2023-04-07T03:09:31;5.90;99.90
17442;DHT22;8838;50.144;8.176;2023-04-07T03:12:00;5.80;99.90
17442;DHT22;8838;50.144;8.176;2023-04-07T03:14:27;5.80;99.90
17442;DHT22;8838;50.144;8.176;2023-04-07T03:16:54;5.80;99.90
17442;DHT22;8838;50.144;8.176;2023-04-07T03:19:21;5.60;99.90
17442;DHT22;8838;50.144;8.176;2023-04-07T03:21:48;5.60;99.90
17442;DHT22;8838;50.144;8.176;2023-04-07T03:24:15;5.60;99.90
17442;DHT22;8838;50.144;8.176;2023-04-07T03:26:42;5.60;99.90
17442;DHT22;8838;50.144;8.176;2023-04-07T03:29:11;5.60;99.90
17442;DHT22;8838;50.144;8.176;2023-04-07T03:31:38;5.50;99.90
17442;DHT22;8838;50.144;8.176;2023-04-07T03:34:06;5.50;99.90
17442;DHT22;8838;50.144;8.176;2023-04-07T03:36:33;5.60;99.90
17442;DHT22;8838;50.144;8.176;2023-04-07T03:38:59;5.60;99.90
17442;DHT22;8838;50.144;8.176;2023-04-07T03:41:26;5.60;99.90
17442;DHT22;8838;50.144;8.176;2023-04-07T03:43:53;5.80;99.90
17442;DHT22;8838;50.144;8.176;2023-04-07T03:46:21;5.60;99.90
17442;DHT22;8838;50.144;8.176;2023-04-07T03:48:49;5.60;99.90
17442;DHT22;8838;50.144;8.176;2023-04-07T03:51:16;5.60;99.90
17442;DHT22;8838;50.144;8.176;2023-04-07T03:53:42;5.60;99.90
17442;DHT22;8838;50.144;8.176;2023-04-07T03:56:09;5.60;99.90
17442;DHT22;8838;50.144;8.176;2023-04-07T03:58:36;5.60;99.90
17442;DHT22;8838;50.144;8.176;2023-04-07T04:01:07;5.60;99.90
17442;DHT22;8838;50.144;8.176;2023-04-07T04:03:35;5.70;99.90
17442;DHT22;8838;50.144;8.176;2023-04-07T04:06:02;5.70;99.90
17442;DHT22;8838;50.144;8.176;2023-04-07T04:08:30;5.70;99.90
17442;DHT22;8838;50.144;8.176;2023-04-07T04:10:56;5.60;99.90
17442;DHT22;8838;50.144;8.176;2023-04-07T04:13:23;5.60;99.90
17442;DHT22;8838;50.144;8.176;2023-04-07T04:15:50;5.70;99.90
17442;DHT22;8838;50.144;8.176;2023-04-07T04:18:17;5.60;99.90
17442;DHT22;8838;50.144;8.176;2023-04-07T04:20:46;5.70;99.90
17442;DHT22;8838;50.144;8.176;2023-04-07T04:23:13;5.60;99.90
17442;DHT22;8838;50.144;8.176;2023-04-07T04:25:40;5.60;99.90
17442;DHT22;8838;50.144;8.176;2023-04-07T04:28:07;5.60;99.90
17442;DHT22;8838;50.144;8.176;2023-04-07T04:30:33;5.60;99.90
17442;DHT22;8838;50.144;8.176;2023-04-07T04:33:00;5.60;99.90
17442;DHT22;8838;50.144;8.176;2023-04-07T04:35:27;5.50;99.90
17442;DHT22;8838;50.144;8.176;2023-04-07T04:37:55;5.50;99.90
17442;DHT22;8838;50.144;8.176;2023-04-07T04:40:22;5.50;99.90
17442;DHT22;8838;50.144;8.176;2023-04-07T04:42:49;5.50;99.90
17442;DHT22;8838;50.144;8.176;2023-04-07T04:45:16;5.60;99.90
17442;DHT22;8838;50.144;8.176;2023-04-07T04:47:43;5.60;99.90
17442;DHT22;8838;50.144;8.176;2023-04-07T04:50:10;5.50;99.90
17442;DHT22;8838;50.144;8.176;2023-04-07T04:52:37;5.50;99.90
17442;DHT22;8838;50.144;8.176;2023-04-07T04:55:07;5.50;99.90
17442;DHT22;8838;50.144;8.176;2023-04-07T04:57:34;5.50;99.90
17442;DHT22;8838;50.144;8.176;2023-04-07T05:00:01;5.60;99.90
17442;DHT22;8838;50.144;8.176;2023-04-07T05:02:29;5.60;99.90
17442;DHT22;8838;50.144;8.176;2023-04-07T05:04:57;5.70;99.90
17442;DHT22;8838;50.144;8.176;2023-04-07T05:07:24;5.60;99.90
17442;DHT22;8838;50.144;8.176;2023-04-07T05:09:51;5.50;99.90
17442;DHT22;8838;50.144;8.176;2023-04-07T05:12:19;5.50;99.90
17442;DHT22;8838;50.144;8.176;2023-04-07T05:14:46;5.60;99.90
17442;DHT22;8838;50.144;8.176;2023-04-07T05:17:13;5.60;99.90
17442;DHT22;8838;50.144;8.176;2023-04-07T05:19:40;5.70;99.90
17442;DHT22;8838;50.144;8.176;2023-04-07T05:22:07;5.70;99.90
17442;DHT22;8838;50.144;8.176;2023-04-07T05:24:33;5.80;99.90
17442;DHT22;8838;50.144;8.176;2023-04-07T05:27:00;5.70;99.90
17442;DHT22;8838;50.144;8.176;2023-04-07T05:29:28;5.70;99.90
17442;DHT22;8838;50.144;8.176;2023-04-07T05:31:56;5.70;99.90
17442;DHT22;8838;50.144;8.176;2023-04-07T05:34:23;5.60;99.90
17442;DHT22;8838;50.144;8.176;2023-04-07T05:36:50;5.50;99.90
17442;DHT22;8838;50.144;8.176;2023-04-07T05:39:17;5.50;99.90
17442;DHT22;8838;50.144;8.176;2023-04-07T05:41:44;5.60;99.90
17442;DHT22;8838;50.144;8.176;2023-04-07T05:44:11;5.50;99.90
17442;DHT22;8838;50.144;8.176;2023-04-07T05:46:39;5.50;99.90
17442;DHT22;8838;50.144;8.176;2023-04-07T05:49:06;5.60;99.90
17442;DHT22;8838;50.144;8.176;2023-04-07T05:51:32;5.70;99.90
17442;DHT22;8838;50.144;8.176;2023-04-07T05:54:00;5.60;99.90
17442;DHT22;8838;50.144;8.176;2023-04-07T05:56:28;5.50;99.90
17442;DHT22;8838;50.144;8.176;2023-04-07T05:58:55;5.60;99.90
17442;DHT22;8838;50.144;8.176;2023-04-07T06:01:23;5.60;99.90
17442;DHT22;8838;50.144;8.176;2023-04-07T06:03:51;5.70;99.90
17442;DHT22;8838;50.144;8.176;2023-04-07T06:06:18;5.70;99.90
17442;DHT22;8838;50.144;8.176;2023-04-07T06:08:45;5.80;99.90
17442;DHT22;8838;50.144;8.176;2023-04-07T06:11:12;5.80;99.90
17442;DHT22;8838;50.144;8.176;2023-04-07T06:13:39;5.90;99.90
17442;DHT22;8838;50.144;8.176;2023-04-07T06:16:06;5.90;99.90
17442;DHT22;8838;50.144;8.176;2023-04-07T06:18:33;5.90;99.90
17442;DHT22;8838;50.144;8.176;2023-04-07T06:21:02;5.90;99.90
17442;DHT22;8838;50.144;8.176;2023-04-07T06:23:28;6.00;99.90
17442;DHT22;8838;50.144;8.176;2023-04-07T06:25:55;6.00;99.90
17442;DHT22;8838;50.144;8.176;2023-04-07T06:28:22;6.00;99.90
17442;DHT22;8838;50.144;8.176;2023-04-07T06:30:49;6.00;99.90
17442;DHT22;8838;50.144;8.176;2023-04-07T06:33:16;6.00;99.90
17442;DHT22;8838;50.144;8.176;2023-04-07T06:35:44;6.10;99.90
17442;DHT22;8838;50.144;8.176;2023-04-07T06:38:12;6.10;99.90
17442;DHT22;8838;50.144;8.176;2023-04-07T06:40:39;6.10;99.90
17442;DHT22;8838;50.144;8.176;2023-04-07T06:43:06;6.10;99.90
17442;DHT22;8838;50.144;8.176;2023-04-07T06:45:32;6.10;99.90
17442;DHT22;8838;50.144;8.176;2023-04-07T06:48:00;6.10;99.90
17442;DHT22;8838;50.144;8.176;2023-04-07T06:50:27;6.20;99.90
17442;DHT22;8838;50.144;8.176;2023-04-07T06:52:54;6.20;99.90
17442;DHT22;8838;50.144;8.176;2023-04-07T06:55:22;6.20;99.90
17442;DHT22;8838;50.144;8.176;2023-04-07T06:57:49;6.20;99.90
17442;DHT22;8838;50.144;8.176;2023-04-07T07:00:17;6.40;99.90
17442;DHT22;8838;50.144;8.176;2023-04-07T07:02:44;6.40;99.90
17442;DHT22;8838;50.144;8.176;2023-04-07T07:05:11;6.40;99.90
17442;DHT22;8838;50.144;8.176;2023-04-07T07:07:38;6.50;99.90
17442;DHT22;8838;50.144;8.176;2023-04-07T07:10:07;6.50;99.90
17442;DHT22;8838;50.144;8.176;2023-04-07T07:12:36;6.50;99.90
17442;DHT22;8838;50.144;8.176;2023-04-07T07:15:04;6.60;99.90
17442;DHT22;8838;50.144;8.176;2023-04-07T07:17:31;6.60;99.90
17442;DHT22;8838;50.144;8.176;2023-04-07T07:19:58;6.60;99.90
17442;DHT22;8838;50.144;8.176;2023-04-07T07:22:24;6.70;99.90
17442;DHT22;8838;50.144;8.176;2023-04-07T07:24:51;6.70;99.90
17442;DHT22;8838;50.144;8.176;2023-04-07T07:27:18;6.70;99.90
17442;DHT22;8838;50.144;8.176;2023-04-07T07:29:47;6.70;99.90
17442;DHT22;8838;50.144;8.176;2023-04-07T07:32:13;6.80;99.90
17442;DHT22;8838;50.144;8.176;2023-04-07T07:34:40;6.80;99.90
17442;DHT22;8838;50.144;8.176;2023-04-07T07:37:07;6.90;99.90
17442;DHT22;8838;50.144;8.176;2023-04-07T07:39:34;6.80;99.90
17442;DHT22;8838;50.144;8.176;2023-04-07T07:42:01;6.90;99.90
17442;DHT22;8838;50.144;8.176;2023-04-07T07:44:28;6.90;99.90
17442;DHT22;8838;50.144;8.176;2023-04-07T07:46:56;6.90;99.90
17442;DHT22;8838;50.144;8.176;2023-04-07T07:49:23;6.90;99.90
17442;DHT22;8838;50.144;8.176;2023-04-07T07:51:50;7.00;99.90
17442;DHT22;8838;50.144;8.176;2023-04-07T07:54:17;7.00;99.90
17442;DHT22;8838;50.144;8.176;2023-04-07T07:56:44;7.10;99.90
17442;DHT22;8838;50.144;8.176;2023-04-07T07:59:11;7.20;99.90
17442;DHT22;8838;50.144;8.176;2023-04-07T08:01:38;7.20;99.90
17442;DHT22;8838;50.144;8.176;2023-04-07T08:04:09;7.20;99.90
17442;DHT22;8838;50.144;8.176;2023-04-07T08:06:36;7.30;99.90
17442;DHT22;8838;50.144;8.176;2023-04-07T08:09:03;7.30;99.90
17442;DHT22;8838;50.144;8.176;2023-04-07T08:11:30;7.30;99.90
17442;DHT22;8838;50.144;8.176;2023-04-07T08:13:57;7.40;99.90
17442;DHT22;8838;50.144;8.176;2023-04-07T08:16:24;7.40;99.90
17442;DHT22;8838;50.144;8.176;2023-04-07T08:18:51;7.50;99.90
17442;DHT22;8838;50.144;8.176;2023-04-07T08:21:19;7.50;99.90
17442;DHT22;8838;50.144;8.176;2023-04-07T08:23:46;7.50;99.90
17442;DHT22;8838;50.144;8.176;2023-04-07T08:26:13;7.60;99.90
17442;DHT22;8838;50.144;8.176;2023-04-07T08:28:41;7.60;99.90
17442;DHT22;8838;50.144;8.176;2023-04-07T08:31:08;7.60;99.90
17442;DHT22;8838;50.144;8.176;2023-04-07T08:33:35;7.50;99.90
17442;DHT22;8838;50.144;8.176;2023-04-07T08:36:02;7.60;99.90
17442;DHT22;8838;50.144;8.176;2023-04-07T08:38:31;7.50;99.90
17442;DHT22;8838;50.144;8.176;2023-04-07T08:41:03;7.50;99.90
17442;DHT22;8838;50.144;8.176;2023-04-07T08:43:34;7.60;99.90
17442;DHT22;8838;50.144;8.176;2023-04-07T08:46:02;7.70;99.90
17442;DHT22;8838;50.144;8.176;2023-04-07T08:48:30;7.80;99.90
17442;DHT22;8838;50.144;8.176;2023-04-07T08:51:01;7.80;99.90
17442;DHT22;8838;50.144;8.176;2023-04-07T08:53:41;8.00;99.90
17442;DHT22;8838;50.144;8.176;2023-04-07T08:56:10;8.10;99.90
17442;DHT22;8838;50.144;8.176;2023-04-07T08:58:38;8.20;99.90
17442;DHT22;8838;50.144;8.176;2023-04-07T09:01:06;8.30;99.90
17442;DHT22;8838;50.144;8.176;2023-04-07T09:03:33;8.20;99.90
17442;DHT22;8838;50.144;8.176;2023-04-07T09:06:00;8.20;99.90
17442;DHT22;8838;50.144;8.176;2023-04-07T09:08:27;8.20;99.90
17442;DHT22;8838;50.144;8.176;2023-04-07T09:10:57;8.20;99.90
17442;DHT22;8838;50.144;8.176;2023-04-07T09:13:25;8.20;99.90
17442;DHT22;8838;50.144;8.176;2023-04-07T09:15:52;8.20;99.90
17442;DHT22;8838;50.144;8.176;2023-04-07T09:18:20;8.10;99.90
17442;DHT22;8838;50.144;8.176;2023-04-07T09:20:54;8.10;99.90
17442;DHT22;8838;50.144;8.176;2023-04-07T09:23:30;8.00;99.90
17442;DHT22;8838;50.144;8.176;2023-04-07T09:25:59;8.00;99.90
17442;DHT22;8838;50.144;8.176;2023-04-07T09:28:39;7.90;99.90
17442;DHT22;8838;50.144;8.176;2023-04-07T09:31:07;7.90;99.90
17442;DHT22;8838;50.144;8.176;2023-04-07T09:33:34;7.80;99.90
17442;DHT22;8838;50.144;8.176;2023-04-07T09:36:01;7.80;99.90
17442;DHT22;8838;50.144;8.176;2023-04-07T09:38:33;7.80;99.90
17442;DHT22;8838;50.144;8.176;2023-04-07T09:41:09;7.80;99.90
17442;DHT22;8838;50.144;8.176;2023-04-07T09:43:37;7.90;99.90
17442;DHT22;8838;50.144;8.176;2023-04-07T09:46:09;7.90;99.90
17442;DHT22;8838;50.144;8.176;2023-04-07T09:48:36;7.90;99.90
17442;DHT22;8838;50.144;8.176;2023-04-07T09:51:06;8.10;99.90
17442;DHT22;8838;50.144;8.176;2023-04-07T09:53:43;8.20;99.90
17442;DHT22;8838;50.144;8.176;2023-04-07T09:56:12;8.50;99.90
17442;DHT22;8838;50.144;8.176;2023-04-07T09:58:41;8.60;99.90
17442;DHT22;8838;50.144;8.176;2023-04-07T10:01:09;8.80;99.90
17442;DHT22;8838;50.144;8.176;2023-04-07T10:03:37;8.80;99.90
17442;DHT22;8838;50.144;8.176;2023-04-07T10:06:05;8.80;99.90
17442;DHT22;8838;50.144;8.176;2023-04-07T10:08:33;8.80;99.90
17442;DHT22;8838;50.144;8.176;2023-04-07T10:11:01;8.90;99.90
17442;DHT22;8838;50.144;8.176;2023-04-07T10:13:30;8.90;99.90
17442;DHT22;8838;50.144;8.176;2023-04-07T10:15:58;8.80;99.90
17442;DHT22;8838;50.144;8.176;2023-04-07T10:18:28;8.80;99.90
17442;DHT22;8838;50.144;8.176;2023-04-07T10:20:56;8.90;99.90
17442;DHT22;8838;50.144;8.176;2023-04-07T10:23:35;8.80;99.90
17442;DHT22;8838;50.144;8.176;2023-04-07T10:26:05;8.90;99.90
17442;DHT22;8838;50.144;8.176;2023-04-07T10:28:37;8.90;99.90
17442;DHT22;8838;50.144;8.176;2023-04-07T10:31:05;9.00;99.90
17442;DHT22;8838;50.144;8.176;2023-04-07T10:33:46;9.10;99.90
17442;DHT22;8838;50.144;8.176;2023-04-07T10:36:14;9.20;99.90
17442;DHT22;8838;50.144;8.176;2023-04-07T10:38:41;9.30;99.90
17442;DHT22;8838;50.144;8.176;2023-04-07T10:41:36;9.50;99.90
17442;DHT22;8838;50.144;8.176;2023-04-07T10:44:06;9.60;99.90
17442;DHT22;8838;50.144;8.176;2023-04-07T10:47:01;9.70;99.90
17442;DHT22;8838;50.144;8.176;2023-04-07T10:49:28;9.60;99.90
17442;DHT22;8838;50.144;8.176;2023-04-07T10:52:20;9.50;99.90
17442;DHT22;8838;50.144;8.176;2023-04-07T10:54:47;9.40;99.90
17442;DHT22;8838;50.144;8.176;2023-04-07T10:57:34;9.30;99.90
17442;DHT22;8838;50.144;8.176;2023-04-07T11:00:24;9.30;99.90
17442;DHT22;8838;50.144;8.176;2023-04-07T11:02:51;9.30;99.90
17442;DHT22;8838;50.144;8.176;2023-04-07T11:05:20;9.30;99.90
17442;DHT22;8838;50.144;8.176;2023-04-07T11:07:52;9.30;99.90
17442;DHT22;8838;50.144;8.176;2023-04-07T11:10:24;9.40;99.90
17442;DHT22;8838;50.144;8.176;2023-04-07T11:12:58;9.40;99.90
17442;DHT22;8838;50.144;8.176;2023-04-07T11:15:27;9.40;99.90
17442;DHT22;8838;50.144;8.176;2023-04-07T11:18:21;9.50;99.90
17442;DHT22;8838;50.144;8.176;2023-04-07T11:20:51;9.60;99.90
17442;DHT22;8838;50.144;8.176;2023-04-07T11:23:19;9.70;99.90
17442;DHT22;8838;50.144;8.176;2023-04-07T11:25:49;9.60;99.90
17442;DHT22;8838;50.144;8.176;2023-04-07T11:28:16;9.60;99.90
17442;DHT22;8838;50.144;8.176;2023-04-07T11:30:51;9.50;99.90
17442;DHT22;8838;50.144;8.176;2023-04-07T11:33:19;9.50;99.90
17442;DHT22;8838;50.144;8.176;2023-04-07T11:35:48;9.50;99.90
17442;DHT22;8838;50.144;8.176;2023-04-07T11:38:16;9.50;99.90
17442;DHT22;8838;50.144;8.176;2023-04-07T11:40:43;9.50;99.90
17442;DHT22;8838;50.144;8.176;2023-04-07T11:43:17;9.50;99.90
17442;DHT22;8838;50.144;8.176;2023-04-07T11:45:44;9.40;99.90
17442;DHT22;8838;50.144;8.176;2023-04-07T11:48:29;9.30;99.90
17442;DHT22;8838;50.144;8.176;2023-04-07T11:50:57;9.20;99.90
17442;DHT22;8838;50.144;8.176;2023-04-07T11:53:25;9.20;99.90
17442;DHT22;8838;50.144;8.176;2023-04-07T11:56:00;9.10;99.90
17442;DHT22;8838;50.144;8.176;2023-04-07T11:58:27;9.00;99.90
17442;DHT22;8838;50.144;8.176;2023-04-07T12:00:54;9.10;99.90
17442;DHT22;8838;50.144;8.176;2023-04-07T12:03:22;8.90;99.90
17442;DHT22;8838;50.144;8.176;2023-04-07T12:05:53;8.90;99.90
17442;DHT22;8838;50.144;8.176;2023-04-07T12:08:20;8.80;99.90
17442;DHT22;8838;50.144;8.176;2023-04-07T12:10:47;8.80;99.90
17442;DHT22;8838;50.144;8.176;2023-04-07T12:13:14;8.80;99.90
17442;DHT22;8838;50.144;8.176;2023-04-07T12:15:41;8.80;99.90
17442;DHT22;8838;50.144;8.176;2023-04-07T12:18:14;8.80;99.90
17442;DHT22;8838;50.144;8.176;2023-04-07T12:20:42;8.90;99.90
17442;DHT22;8838;50.144;8.176;2023-04-07T12:23:11;9.00;99.90
17442;DHT22;8838;50.144;8.176;2023-04-07T12:25:38;9.00;99.90
17442;DHT22;8838;50.144;8.176;2023-04-07T12:28:05;9.00;99.90
17442;DHT22;8838;50.144;8.176;2023-04-07T12:30:32;8.90;99.90
17442;DHT22;8838;50.144;8.176;2023-04-07T12:32:59;8.90;99.90
17442;DHT22;8838;50.144;8.176;2023-04-07T12:35:27;8.90;99.90
17442;DHT22;8838;50.144;8.176;2023-04-07T12:37:54;8.80;99.90
17442;DHT22;8838;50.144;8.176;2023-04-07T12:40:23;8.80;99.90
17442;DHT22;8838;50.144;8.176;2023-04-07T12:42:50;8.70;99.90
17442;DHT22;8838;50.144;8.176;2023-04-07T12:45:17;8.60;99.90
17442;DHT22;8838;50.144;8.176;2023-04-07T12:47:44;8.70;99.90
17442;DHT22;8838;50.144;8.176;2023-04-07T12:50:11;8.60;99.90
17442;DHT22;8838;50.144;8.176;2023-04-07T12:52:39;8.70;99.90
17442;DHT22;8838;50.144;8.176;2023-04-07T12:55:07;8.60;99.90
17442;DHT22;8838;50.144;8.176;2023-04-07T12:57:35;8.60;99.90
17442;DHT22;8838;50.144;8.176;2023-04-07T13:00:05;8.70;99.90
17442;DHT22;8838;50.144;8.176;2023-04-07T13:02:33;8.80;99.90
17442;DHT22;8838;50.144;8.176;2023-04-07T13:05:01;8.80;99.90
17442;DHT22;8838;50.144;8.176;2023-04-07T13:07:29;8.80;99.90
17442;DHT22;8838;50.144;8.176;2023-04-07T13:09:56;8.70;99.90
17442;DHT22;8838;50.144;8.176;2023-04-07T13:12:23;8.60;99.90
17442;DHT22;8838;50.144;8.176;2023-04-07T13:14:51;8.60;99.90
17442;DHT22;8838;50.144;8.176;2023-04-07T13:17:19;8.60;99.90
17442;DHT22;8838;50.144;8.176;2023-04-07T13:19:47;8.50;99.90
17442;DHT22;8838;50.144;8.176;2023-04-07T13:22:14;8.60;99.90
17442;DHT22;8838;50.144;8.176;2023-04-07T13:24:42;8.60;99.90
17442;DHT22;8838;50.144;8.176;2023-04-07T13:27:09;8.60;99.90
17442;DHT22;8838;50.144;8.176;2023-04-07T13:29:36;8.60;99.90
17442;DHT22;8838;50.144;8.176;2023-04-07T13:32:08;8.60;99.90
17442;DHT22;8838;50.144;8.176;2023-04-07T13:34:38;8.70;99.90
17442;DHT22;8838;50.144;8.176;2023-04-07T13:37:05;8.60;99.90
17442;DHT22;8838;50.144;8.176;2023-04-07T13:39:33;8.70;99.90
17442;DHT22;8838;50.144;8.176;2023-04-07T13:42:00;8.60;99.90
17442;DHT22;8838;50.144;8.176;2023-04-07T13:44:27;8.60;99.90
17442;DHT22;8838;50.144;8.176;2023-04-07T13:46:55;8.40;99.90
17442;DHT22;8838;50.144;8.176;2023-04-07T13:49:24;8.50;99.90
17442;DHT22;8838;50.144;8.176;2023-04-07T13:51:51;8.50;99.90
17442;DHT22;8838;50.144;8.176;2023-04-07T13:54:18;8.50;99.90
17442;DHT22;8838;50.144;8.176;2023-04-07T13:56:45;8.50;99.90
17442;DHT22;8838;50.144;8.176;2023-04-07T13:59:14;8.50;99.90
17442;DHT22;8838;50.144;8.176;2023-04-07T14:01:41;8.60;99.90
17442;DHT22;8838;50.144;8.176;2023-04-07T14:04:08;8.50;99.90
17442;DHT22;8838;50.144;8.176;2023-04-07T14:06:36;8.50;99.90
17442;DHT22;8838;50.144;8.176;2023-04-07T14:09:03;8.40;99.90
17442;DHT22;8838;50.144;8.176;2023-04-07T14:11:33;8.50;99.90
17442;DHT22;8838;50.144;8.176;2023-04-07T14:14:00;8.50;99.90
17442;DHT22;8838;50.144;8.176;2023-04-07T14:16:27;8.60;99.90
17442;DHT22;8838;50.144;8.176;2023-04-07T14:18:54;8.70;99.90
17442;DHT22;8838;50.144;8.176;2023-04-07T14:21:22;8.80;99.90
17442;DHT22;8838;50.144;8.176;2023-04-07T14:23:50;8.90;99.90
17442;DHT22;8838;50.144;8.176;2023-04-07T14:26:18;8.90;99.90
17442;DHT22;8838;50.144;8.176;2023-04-07T14:28:45;8.80;99.90
17442;DHT22;8838;50.144;8.176;2023-04-07T14:31:13;8.80;99.90
17442;DHT22;8838;50.144;8.176;2023-04-07T14:33:41;8.80;99.90
17442;DHT22;8838;50.144;8.176;2023-04-07T14:36:08;8.70;99.90
17442;DHT22;8838;50.144;8.176;2023-04-07T14:38:35;8.60;99.90
17442;DHT22;8838;50.144;8.176;2023-04-07T14:41:03;8.60;99.90
17442;DHT22;8838;50.144;8.176;2023-04-07T14:43:30;8.50;99.90
17442;DHT22;8838;50.144;8.176;2023-04-07T14:45:57;8.50;99.90
17442;DHT22;8838;50.144;8.176;2023-04-07T14:48:25;8.60;99.90
17442;DHT22;8838;50.144;8.176;2023-04-07T14:50:52;8.70;99.90
17442;DHT22;8838;50.144;8.176;2023-04-07T14:53:20;8.80;99.90
17442;DHT22;8838;50.144;8.176;2023-04-07T14:55:48;8.80;99.90
17442;DHT22;8838;50.144;8.176;2023-04-07T14:58:16;8.90;99.90
17442;DHT22;8838;50.144;8.176;2023-04-07T15:00:43;9.00;99.90
17442;DHT22;8838;50.144;8.176;2023-04-07T15:03:10;9.00;99.90
17442;DHT22;8838;50.144;8.176;2023-04-07T15:05:37;9.10;99.90
17442;DHT22;8838;50.144;8.176;2023-04-07T15:08:04;9.20;99.90
17442;DHT22;8838;50.144;8.176;2023-04-07T15:10:31;9.30;99.90
17442;DHT22;8838;50.144;8.176;2023-04-07T15:13:00;9.40;99.90
17442;DHT22;8838;50.144;8.176;2023-04-07T15:15:28;9.40;99.90
17442;DHT22;8838;50.144;8.176;2023-04-07T15:17:55;9.50;99.90
17442;DHT22;8838;50.144;8.176;2023-04-07T15:20:22;9.50;99.90
17442;DHT22;8838;50.144;8.176;2023-04-07T15:22:49;9.40;99.90
17442;DHT22;8838;50.144;8.176;2023-04-07T15:25:16;9.30;99.90
17442;DHT22;8838;50.144;8.176;2023-04-07T15:27:43;9.10;99.90
17442;DHT22;8838;50.144;8.176;2023-04-07T15:30:11;9.10;99.90
17442;DHT22;8838;50.144;8.176;2023-04-07T15:32:39;9.00;99.90
17442;DHT22;8838;50.144;8.176;2023-04-07T15:35:07;8.80;99.90
17442;DHT22;8838;50.144;8.176;2023-04-07T15:37:34;8.80;99.90
17442;DHT22;8838;50.144;8.176;2023-04-07T15:40:01;8.60;99.90
17442;DHT22;8838;50.144;8.176;2023-04-07T15:42:28;8.60;99.90
17442;DHT22;8838;50.144;8.176;2023-04-07T15:44:57;8.60;99.90
17442;DHT22;8838;50.144;8.176;2023-04-07T15:47:24;8.50;99.90
17442;DHT22;8838;50.144;8.176;2023-04-07T15:49:52;8.50;99.90
17442;DHT22;8838;50.144;8.176;2023-04-07T15:52:19;8.40;99.90
17442;DHT22;8838;50.144;8.176;2023-04-07T15:54:46;8.50;99.90
17442;DHT22;8838;50.144;8.176;2023-04-07T15:57:13;8.50;99.90
17442;DHT22;8838;50.144;8.176;2023-04-07T15:59:41;8.50;99.90
17442;DHT22;8838;50.144;8.176;2023-04-07T16:02:08;8.50;99.90
17442;DHT22;8838;50.144;8.176;2023-04-07T16:04:35;8.40;99.90
17442;DHT22;8838;50.144;8.176;2023-04-07T16:07:03;8.40;99.90
17442;DHT22;8838;50.144;8.176;2023-04-07T16:09:30;8.40;99.90
17442;DHT22;8838;50.144;8.176;2023-04-07T16:11:58;8.40;99.90